Time;durP1;ratioP1;P1;durP2;ratioP2;P2;SDS_P1;SDS_P2;PMS_P1;PMS_P2;Temp;Humidity;BMP_temperature;BMP_pressure;BME280_temperature;BME280_humidity;BME280_pressure;Samples;Min_cycle;Max_cycle;Signal;HPM_P1;HPM_P2
2023/10/22 00:01:39;;;;;;;8.32;1.10;;;;;;;14.86;100.00;99714.06;5194014;28;20017;-81
2023/10/22 00:04:09;;;;;;;4.38;1.27;;;;;;;14.84;100.00;99713.47;5203164;28;20476;-81
2023/10/22 00:06:40;;;;;;;7.63;1.35;;;;;;;14.65;100.00;99717.97;5204818;28;20029;-81
2023/10/22 00:09:10;;;;;;;6.57;1.40;;;;;;;14.75;100.00;99721.84;5204879;28;20017;-81
2023/10/22 00:11:41;;;;;;;4.35;0.90;;;;;;;14.69;100.00;99740.78;5195910;28;20415;-81
2023/10/22 00:14:11;;;;;;;5.95;1.13;;;;;;;14.76;100.00;99742.41;5207857;28;20033;-82
2023/10/22 00:16:42;;;;;;;4.97;1.02;;;;;;;14.83;100.00;99752.31;5194362;28;20031;-82
2023/10/22 00:19:12;;;;;;;6.78;1.20;;;;;;;14.74;100.00;99744.50;5206583;28;20033;-82
2023/10/22 00:21:43;;;;;;;2.78;1.02;;;;;;;14.80;100.00;99740.06;5202086;28;20048;-82
2023/10/22 00:24:13;;;;;;;6.65;0.95;;;;;;;14.88;100.00;99755.19;5206890;28;20013;-83
2023/10/22 00:26:44;;;;;;;4.43;1.30;;;;;;;14.84;100.00;99759.38;5200035;28;20032;-80
2023/10/22 00:29:14;;;;;;;6.15;1.20;;;;;;;14.87;100.00;99762.47;5201393;28;20502;-81
2023/10/22 00:31:45;;;;;;;7.65;0.98;;;;;;;14.82;100.00;99769.56;5201081;28;20473;-80
2023/10/22 00:34:15;;;;;;;3.20;0.90;;;;;;;14.98;100.00;99779.81;5203253;28;20226;-81
2023/10/22 00:36:46;;;;;;;4.57;1.42;;;;;;;14.98;100.00;99783.34;5205658;28;20568;-81
2023/10/22 00:39:16;;;;;;;5.53;1.10;;;;;;;14.93;100.00;99795.84;5207427;28;20301;-81
2023/10/22 00:41:47;;;;;;;3.33;1.30;;;;;;;14.91;100.00;99785.28;5186991;28;20022;-81
2023/10/22 00:44:17;;;;;;;4.10;1.20;;;;;;;15.00;100.00;99788.50;5207361;28;20048;-81
2023/10/22 00:46:48;;;;;;;3.33;1.23;;;;;;;15.05;100.00;99793.25;5205620;28;20120;-81
2023/10/22 00:49:19;;;;;;;3.60;1.20;;;;;;;15.13;100.00;99807.31;5202040;28;20035;-81
2023/10/22 00:51:50;;;;;;;5.55;1.35;;;;;;;15.11;100.00;99809.44;5203332;28;20084;-81
2023/10/22 00:54:21;;;;;;;2.80;1.73;;;;;;;15.05;100.00;99802.19;5204880;28;20026;-81
2023/10/22 00:56:53;;;;;;;10.52;1.20;;;;;;;15.17;100.00;99805.00;5206154;28;20021;-81
2023/10/22 00:59:23;;;;;;;4.90;1.40;;;;;;;15.07;100.00;99813.63;5203583;28;20543;-80
2023/10/22 01:01:54;;;;;;;5.90;1.35;;;;;;;15.18;100.00;99814.75;5202971;28;20208;-81
2023/10/22 01:04:25;;;;;;;5.65;1.52;;;;;;;15.17;100.00;99822.03;5205287;28;20017;-80
2023/10/22 01:06:55;;;;;;;7.53;1.75;;;;;;;14.99;100.00;99816.56;5203409;28;20561;-81
2023/10/22 01:09:26;;;;;;;7.22;1.48;;;;;;;15.04;100.00;99830.25;5202410;28;20033;-80
2023/10/22 01:11:59;;;;;;;5.95;1.20;;;;;;;15.17;100.00;99838.25;5201281;28;20049;-79
2023/10/22 01:14:30;;;;;;;2.60;1.10;;;;;;;15.10;100.00;99834.75;5200368;28;20025;-79
2023/10/22 01:17:01;;;;;;;11.45;1.75;;;;;;;15.10;100.00;99842.88;5202845;28;20517;-78
2023/10/22 01:19:32;;;;;;;3.03;1.27;;;;;;;15.01;100.00;99847.72;5196258;28;20032;-78
2023/10/22 01:22:03;;;;;;;7.57;1.10;;;;;;;15.18;100.00;99855.28;5201392;28;20021;-79
2023/10/22 01:24:33;;;;;;;5.20;1.63;;;;;;;15.05;100.00;99856.22;5192189;28;20018;-78
2023/10/22 01:27:04;;;;;;;6.05;1.10;;;;;;;15.10;100.00;99861.78;5198903;28;20017;-79
2023/10/22 01:29:34;;;;;;;3.78;1.05;;;;;;;15.06;100.00;99867.84;5200902;28;20056;-78
2023/10/22 01:32:05;;;;;;;4.03;1.20;;;;;;;15.19;100.00;99870.44;5201052;28;20017;-78
2023/10/22 01:34:36;;;;;;;7.82;1.38;;;;;;;15.23;100.00;99872.50;5203595;28;20105;-81
2023/10/22 01:37:06;;;;;;;4.82;1.15;;;;;;;15.01;100.00;99876.63;5206701;28;20031;-81
2023/10/22 01:39:37;;;;;;;6.82;1.27;;;;;;;15.16;100.00;99878.97;5200297;28;21058;-80
2023/10/22 01:42:07;;;;;;;7.72;1.08;;;;;;;15.14;100.00;99887.31;5204241;28;20014;-81
2023/10/22 01:44:37;;;;;;;2.05;1.05;;;;;;;15.15;100.00;99905.16;5202884;28;21205;-81
2023/10/22 01:47:10;;;;;;;2.83;0.82;;;;;;;15.11;100.00;99900.41;5203738;28;20498;-80
2023/10/22 01:49:42;;;;;;;3.65;1.27;;;;;;;15.15;100.00;99901.63;5202165;28;20028;-81
2023/10/22 01:52:13;;;;;;;2.50;0.95;;;;;;;15.20;100.00;99901.81;5196574;28;20022;-81
2023/10/22 01:54:43;;;;;;;2.22;0.95;;;;;;;15.11;100.00;99914.78;5201445;28;20103;-81
2023/10/22 01:57:14;;;;;;;3.72;1.20;;;;;;;15.11;100.00;99917.47;5205532;28;20124;-81
2023/10/22 01:59:45;;;;;;;7.25;1.38;;;;;;;15.05;100.00;99912.94;5205911;28;20052;-81
2023/10/22 02:02:19;;;;;;;4.25;1.10;;;;;;;15.08;100.00;99923.31;5199123;28;20543;-82
2023/10/22 02:04:55;;;;;;;2.95;1.02;;;;;;;14.94;100.00;99927.97;5183757;28;20771;-81
2023/10/22 02:07:25;;;;;;;2.90;1.15;;;;;;;14.96;100.00;99933.13;5184652;28;20076;-81
2023/10/22 02:09:57;;;;;;;5.55;1.30;;;;;;;14.87;100.00;99935.28;5201328;28;20423;-79
2023/10/22 02:12:28;;;;;;;2.67;0.77;;;;;;;14.99;100.00;99946.22;5200270;28;20045;-81
2023/10/22 02:14:59;;;;;;;1.67;0.90;;;;;;;14.82;100.00;99943.19;5197328;28;20045;-80
2023/10/22 02:17:32;;;;;;;3.35;0.88;;;;;;;14.89;100.00;99945.84;5199885;28;20022;-78
2023/10/22 02:20:08;;;;;;;4.07;1.10;;;;;;;14.89;100.00;99954.78;5201943;28;20458;-79
2023/10/22 02:22:39;;;;;;;5.43;1.10;;;;;;;15.02;100.00;99957.41;5197893;28;20021;-79
2023/10/22 02:25:10;;;;;;;4.32;1.00;;;;;;;14.86;100.00;99967.88;5199318;28;20044;-80
2023/10/22 02:27:40;;;;;;;1.48;0.70;;;;;;;14.91;100.00;99968.06;5194655;28;22261;-79
2023/10/22 02:30:11;;;;;;;5.47;0.93;;;;;;;14.99;100.00;99976.75;5203889;28;20025;-79
2023/10/22 02:32:42;;;;;;;4.60;1.13;;;;;;;14.90;100.00;99974.50;5205294;28;20033;-79
2023/10/22 02:35:13;;;;;;;2.50;1.00;;;;;;;14.83;100.00;99993.47;5205410;28;20033;-79
2023/10/22 02:37:43;;;;;;;3.85;1.17;;;;;;;14.96;100.00;99987.16;5205847;28;20025;-78
2023/10/22 02:40:14;;;;;;;4.75;1.35;;;;;;;14.89;100.00;99998.00;5206635;28;20035;-79
2023/10/22 02:42:44;;;;;;;5.43;0.93;;;;;;;14.84;100.00;99996.97;5204162;28;20050;-79
2023/10/22 02:45:15;;;;;;;4.47;0.90;;;;;;;14.93;100.00;100003.81;5206924;28;20018;-79
2023/10/22 02:47:45;;;;;;;5.15;1.20;;;;;;;14.89;100.00;100006.09;5205109;28;20048;-79
2023/10/22 02:50:15;;;;;;;4.28;1.00;;;;;;;14.93;100.00;100009.19;5204956;28;20025;-79
2023/10/22 02:52:46;;;;;;;3.78;1.30;;;;;;;14.81;100.00;100017.16;5203844;28;20025;-78
2023/10/22 02:55:17;;;;;;;4.68;0.95;;;;;;;14.82;100.00;100017.97;5206017;28;20021;-79
2023/10/22 02:57:47;;;;;;;4.43;1.10;;;;;;;14.75;100.00;100026.09;5195612;28;20027;-79
2023/10/22 03:00:19;;;;;;;3.22;1.13;;;;;;;14.77;100.00;100029.41;5177648;28;20496;-78
2023/10/22 03:02:49;;;;;;;3.40;0.98;;;;;;;14.71;100.00;100039.22;5197352;28;20061;-78
2023/10/22 03:05:20;;;;;;;8.57;1.35;;;;;;;14.65;100.00;100036.50;5204981;28;20156;-78
2023/10/22 03:07:50;;;;;;;3.47;1.23;;;;;;;14.64;100.00;100057.28;5203915;28;20021;-78
2023/10/22 03:10:21;;;;;;;9.27;1.10;;;;;;;14.59;100.00;100057.09;5205864;28;20487;-78
2023/10/22 03:12:52;;;;;;;5.93;1.30;;;;;;;14.59;100.00;100050.84;5205301;28;20014;-78
2023/10/22 03:15:23;;;;;;;1.95;1.05;;;;;;;14.50;100.00;100061.88;5204750;28;20027;-79
2023/10/22 03:17:56;;;;;;;2.15;1.10;;;;;;;14.61;100.00;100071.22;5203912;28;20167;-79
2023/10/22 03:20:32;;;;;;;4.40;1.25;;;;;;;14.50;100.00;100069.97;5204301;28;20395;-79
2023/10/22 03:23:03;;;;;;;3.88;1.05;;;;;;;14.55;100.00;100077.44;5198676;28;20452;-79
2023/10/22 03:25:34;;;;;;;4.53;1.27;;;;;;;14.54;100.00;100080.34;5204004;28;20021;-78
2023/10/22 03:28:06;;;;;;;5.63;1.10;;;;;;;14.55;100.00;100087.41;5204091;28;20025;-78
2023/10/22 03:30:38;;;;;;;5.15;1.35;;;;;;;14.63;100.00;100093.41;5205621;28;20055;-78
2023/10/22 03:33:10;;;;;;;7.63;1.40;;;;;;;14.54;100.00;100100.06;5204773;28;20052;-78
2023/10/22 03:35:41;;;;;;;9.38;1.70;;;;;;;14.56;100.00;100113.34;5205345;28;20488;-78
2023/10/22 03:38:11;;;;;;;5.95;1.00;;;;;;;14.57;100.00;100105.06;5204004;28;20036;-78
2023/10/22 03:40:42;;;;;;;8.73;1.30;;;;;;;14.55;100.00;100109.81;5204893;28;20040;-78
2023/10/22 03:43:12;;;;;;;4.57;1.33;;;;;;;14.54;100.00;100110.88;5204985;28;20408;-79
2023/10/22 03:45:43;;;;;;;4.03;1.00;;;;;;;14.43;100.00;100116.88;5204850;28;20068;-79
2023/10/22 03:48:13;;;;;;;4.07;1.52;;;;;;;14.48;100.00;100117.94;5204534;28;20017;-79
2023/10/22 03:50:45;;;;;;;1.13;1.00;;;;;;;14.44;100.00;100124.75;5204432;28;20025;-79
2023/10/22 03:53:15;;;;;;;5.35;1.20;;;;;;;14.42;100.00;100132.25;5204021;28;20025;-79
2023/10/22 03:55:46;;;;;;;3.85;0.95;;;;;;;14.30;100.00;100135.75;5203972;28;20030;-79
2023/10/22 03:58:18;;;;;;;4.60;1.00;;;;;;;14.30;100.00;100149.25;5193395;28;20021;-79
2023/10/22 04:00:50;;;;;;;2.90;1.05;;;;;;;14.31;100.00;100143.66;5203951;28;20036;-79
2023/10/22 04:03:21;;;;;;;7.85;1.38;;;;;;;14.27;100.00;100155.09;5204011;28;20035;-79
2023/10/22 04:05:55;;;;;;;4.82;1.00;;;;;;;14.26;100.00;100162.34;5203977;28;20029;-79
2023/10/22 04:08:26;;;;;;;4.90;1.10;;;;;;;14.22;100.00;100163.78;5203101;28;20028;-79
2023/10/22 04:10:57;;;;;;;4.50;1.20;;;;;;;14.23;100.00;100166.28;5203320;28;20116;-79
2023/10/22 04:13:27;;;;;;;3.83;1.27;;;;;;;14.19;100.00;100165.03;5204031;28;20105;-79
2023/10/22 04:15:58;;;;;;;1.67;0.90;;;;;;;14.24;100.00;100173.31;5203912;28;20154;-79
2023/10/22 04:18:29;;;;;;;7.07;1.67;;;;;;;14.23;100.00;100173.53;5203945;28;20021;-79
2023/10/22 04:20:59;;;;;;;5.97;1.33;;;;;;;14.24;100.00;100176.03;5203398;28;20526;-78
2023/10/22 04:23:30;;;;;;;5.10;1.23;;;;;;;14.29;100.00;100171.88;5202163;28;20025;-78
2023/10/22 04:26:00;;;;;;;5.13;1.20;;;;;;;14.20;100.00;100176.63;5204176;28;20017;-79
2023/10/22 04:28:31;;;;;;;5.88;1.00;;;;;;;14.15;100.00;100177.25;5196082;28;20041;-79
2023/10/22 04:31:01;;;;;;;5.50;1.08;;;;;;;14.14;100.00;100178.28;5201251;28;20024;-79
2023/10/22 04:33:32;;;;;;;4.15;1.25;;;;;;;14.08;100.00;100191.78;5203502;28;20380;-79
2023/10/22 04:36:03;;;;;;;5.47;1.13;;;;;;;14.15;100.00;100198.84;5203805;28;20025;-78
2023/10/22 04:38:34;;;;;;;3.25;0.95;;;;;;;14.05;100.00;100197.56;5203823;28;20028;-78
2023/10/22 04:41:09;;;;;;;4.20;1.25;;;;;;;14.10;100.00;100211.28;5203276;28;20029;-78
2023/10/22 04:43:41;;;;;;;5.63;1.27;;;;;;;14.05;100.00;100211.06;5203010;28;20021;-79
2023/10/22 04:46:11;;;;;;;4.70;1.05;;;;;;;14.03;100.00;100216.66;5194411;28;20041;-79
2023/10/22 04:48:42;;;;;;;7.45;1.83;;;;;;;13.93;100.00;100218.91;5195605;28;20029;-79
2023/10/22 04:51:12;;;;;;;4.28;1.10;;;;;;;13.85;100.00;100211.84;5197120;28;20049;-79
2023/10/22 04:53:43;;;;;;;5.82;1.45;;;;;;;13.94;100.00;100218.72;5192804;28;20404;-82
2023/10/22 04:56:13;;;;;;;3.22;1.08;;;;;;;13.94;100.00;100218.72;5199417;28;20184;-79
2023/10/22 04:58:44;;;;;;;4.45;1.00;;;;;;;13.98;100.00;100214.56;5203093;28;20029;-79
2023/10/22 05:01:14;;;;;;;6.97;1.33;;;;;;;13.95;100.00;100230.31;5200327;28;20029;-79
2023/10/22 05:03:45;;;;;;;4.28;1.23;;;;;;;13.92;100.00;100228.88;5207527;28;20017;-80
2023/10/22 05:06:16;;;;;;;4.93;1.25;;;;;;;13.90;100.00;100225.53;5196922;28;20029;-79
2023/10/22 05:08:46;;;;;;;4.55;1.20;;;;;;;13.86;100.00;100227.00;5206148;28;20407;-79
2023/10/22 05:11:17;;;;;;;2.88;1.10;;;;;;;13.79;100.00;100236.91;5204646;28;20029;-80
2023/10/22 05:13:48;;;;;;;7.90;1.10;;;;;;;13.76;100.00;100236.50;5199708;28;20045;-79
2023/10/22 05:16:18;;;;;;;3.95;1.35;;;;;;;13.74;100.00;100245.59;5199570;28;20029;-79
2023/10/22 05:18:49;;;;;;;5.63;1.17;;;;;;;13.68;100.00;100245.59;5196399;28;20039;-80
2023/10/22 05:21:20;;;;;;;5.07;1.25;;;;;;;13.60;100.00;100246.56;5200008;28;20033;-80
2023/10/22 05:23:50;;;;;;;5.30;1.05;;;;;;;13.54;100.00;100255.47;5202651;28;20014;-80
2023/10/22 05:26:22;;;;;;;7.45;1.52;;;;;;;13.46;100.00;100253.78;5196363;28;20046;-80
2023/10/22 05:28:55;;;;;;;3.97;1.25;;;;;;;13.41;100.00;100250.84;5200611;28;20017;-80
2023/10/22 05:31:26;;;;;;;6.43;1.85;;;;;;;13.35;100.00;100261.56;5188670;28;20025;-79
2023/10/22 05:33:56;;;;;;;5.28;1.50;;;;;;;13.28;100.00;100256.16;5205165;28;20032;-80
2023/10/22 05:36:27;;;;;;;5.20;1.80;;;;;;;13.24;100.00;100265.66;5203876;28;20037;-80
2023/10/22 05:38:59;;;;;;;4.15;1.67;;;;;;;13.19;100.00;100262.69;5208463;28;20013;-79
2023/10/22 05:41:29;;;;;;;11.68;1.92;;;;;;;13.14;100.00;100265.16;5207552;28;20562;-79
2023/10/22 05:44:02;;;;;;;3.38;1.55;;;;;;;13.13;100.00;100269.72;5204304;28;20028;-79
2023/10/22 05:46:34;;;;;;;9.98;1.42;;;;;;;13.12;100.00;100272.59;5200854;28;20025;-80
2023/10/22 05:49:05;;;;;;;6.90;1.90;;;;;;;13.10;100.00;100285.41;5203901;28;20029;-79
2023/10/22 05:51:36;;;;;;;4.88;2.10;;;;;;;13.11;100.00;100285.25;5203524;28;20026;-79
2023/10/22 05:54:06;;;;;;;6.07;2.10;;;;;;;13.12;100.00;100289.59;5204664;28;20026;-79
2023/10/22 05:56:37;;;;;;;5.53;1.83;;;;;;;13.12;100.00;100297.66;5202266;28;20032;-79
2023/10/22 05:59:08;;;;;;;9.13;1.88;;;;;;;13.12;100.00;100294.97;5201512;28;20514;-79
2023/10/22 06:01:41;;;;;;;7.07;2.20;;;;;;;13.13;100.00;100309.28;5201309;28;20030;-79
2023/10/22 06:04:11;;;;;;;9.48;2.70;;;;;;;13.13;100.00;100307.41;5209651;28;20048;-79
2023/10/22 06:06:42;;;;;;;17.42;2.97;;;;;;;13.07;100.00;100305.50;5202836;28;20440;-79
2023/10/22 06:09:12;;;;;;;7.05;2.88;;;;;;;13.10;100.00;100321.28;5206682;28;20029;-80
2023/10/22 06:11:43;;;;;;;4.35;1.77;;;;;;;13.11;100.00;100316.72;5210564;28;20029;-79
2023/10/22 06:14:13;;;;;;;5.00;1.70;;;;;;;13.09;100.00;100319.59;5201324;28;20079;-80
2023/10/22 06:16:44;;;;;;;4.80;1.90;;;;;;;13.13;100.00;100331.66;5207952;28;20040;-80
2023/10/22 06:19:14;;;;;;;10.18;2.80;;;;;;;13.10;100.00;100329.38;5208314;28;20096;-80
2023/10/22 06:21:45;;;;;;;8.05;2.17;;;;;;;13.10;100.00;100328.50;5185152;28;20025;-80
2023/10/22 06:24:17;;;;;;;9.35;2.58;;;;;;;13.12;100.00;100334.56;5207711;28;20563;-80
2023/10/22 06:26:47;;;;;;;12.43;2.38;;;;;;;13.11;100.00;100341.78;5210446;28;20387;-80
2023/10/22 06:29:18;;;;;;;8.40;2.40;;;;;;;13.15;100.00;100348.47;5208355;28;20037;-80
2023/10/22 06:31:48;;;;;;;8.07;2.70;;;;;;;13.17;100.00;100354.47;5206956;28;20041;-80
2023/10/22 06:34:19;;;;;;;5.70;2.38;;;;;;;13.18;100.00;100360.69;5208997;28;20476;-80
2023/10/22 06:36:49;;;;;;;9.25;2.67;;;;;;;13.16;100.00;100366.28;5205728;28;20467;-80
2023/10/22 06:39:20;;;;;;;6.78;3.50;;;;;;;13.18;100.00;100369.59;5210178;28;20040;-80
2023/10/22 06:41:50;;;;;;;9.55;3.13;;;;;;;13.17;100.00;100376.03;5194290;28;20049;-80
2023/10/22 06:44:21;;;;;;;8.10;3.72;;;;;;;13.14;100.00;100387.16;5210766;28;20037;-80
2023/10/22 06:46:52;;;;;;;6.70;3.28;;;;;;;13.16;100.00;100400.47;5204516;28;20080;-80
2023/10/22 06:49:22;;;;;;;9.57;3.35;;;;;;;13.21;100.00;100398.03;5209543;28;20029;-80
2023/10/22 06:51:53;;;;;;;9.85;2.55;;;;;;;13.20;100.00;100402.59;5209725;28;20040;-80
2023/10/22 06:54:24;;;;;;;9.55;2.00;;;;;;;13.27;100.00;100407.22;5209879;28;20123;-80
2023/10/22 06:56:54;;;;;;;3.92;1.60;;;;;;;13.27;100.00;100418.81;5202707;28;20026;-80
2023/10/22 06:59:25;;;;;;;6.22;1.88;;;;;;;13.31;100.00;100416.59;5201748;28;20037;-80
2023/10/22 07:01:55;;;;;;;5.80;1.95;;;;;;;13.37;100.00;100419.31;5206830;28;20145;-80
2023/10/22 07:04:26;;;;;;;9.13;2.22;;;;;;;13.43;100.00;100421.22;5206044;28;20025;-80
2023/10/22 07:06:56;;;;;;;4.57;1.73;;;;;;;13.44;100.00;100427.44;5205968;28;20033;-80
2023/10/22 07:09:27;;;;;;;7.78;1.77;;;;;;;13.49;100.00;100427.69;5205808;28;20014;-80
2023/10/22 07:11:57;;;;;;;5.20;1.90;;;;;;;13.54;100.00;100427.13;5208287;28;20029;-80
2023/10/22 07:14:28;;;;;;;7.13;1.88;;;;;;;13.54;100.00;100429.81;5204497;28;20033;-79
2023/10/22 07:16:58;;;;;;;6.50;2.03;;;;;;;13.60;100.00;100435.25;5201894;28;20028;-79
2023/10/22 07:19:29;;;;;;;4.97;1.70;;;;;;;13.67;100.00;100440.69;5201548;28;20029;-79
2023/10/22 07:22:00;;;;;;;5.00;2.40;;;;;;;13.67;100.00;100438.00;5201224;28;20150;-79
2023/10/22 07:24:33;;;;;;;10.43;2.00;;;;;;;13.72;100.00;100440.94;5203523;28;20029;-80
2023/10/22 07:27:04;;;;;;;6.80;2.55;;;;;;;13.72;100.00;100439.06;5205225;28;20405;-79
2023/10/22 07:29:34;;;;;;;10.68;2.13;;;;;;;13.83;100.00;100445.78;5201091;28;20025;-79
2023/10/22 07:32:05;;;;;;;5.10;1.75;;;;;;;13.96;100.00;100453.97;5204392;28;20032;-79
2023/10/22 07:34:36;;;;;;;5.95;1.63;;;;;;;14.07;100.00;100449.88;5201445;28;20428;-79
2023/10/22 07:37:06;;;;;;;7.25;2.67;;;;;;;14.30;100.00;100463.06;5205795;28;20027;-82
2023/10/22 07:39:37;;;;;;;4.57;1.92;;;;;;;14.55;100.00;100466.13;5205754;28;20022;-83
2023/10/22 07:42:07;;;;;;;8.43;1.92;;;;;;;14.78;100.00;100460.41;5193284;28;20476;-82
2023/10/22 07:44:38;;;;;;;13.45;2.22;;;;;;;15.00;100.00;100474.56;5204160;28;20024;-83
2023/10/22 07:47:08;;;;;;;7.25;2.05;;;;;;;15.14;100.00;100472.75;5201900;28;20041;-82
2023/10/22 07:49:39;;;;;;;3.83;2.28;;;;;;;15.07;100.00;100478.13;5201809;28;20026;-84
2023/10/22 07:52:09;;;;;;;4.05;2.28;;;;;;;15.14;100.00;100478.16;5200056;28;20025;-82
2023/10/22 07:54:40;;;;;;;6.95;2.45;;;;;;;15.11;100.00;100483.94;5200915;28;20022;-83
2023/10/22 07:57:10;;;;;;;6.97;2.88;;;;;;;15.14;100.00;100491.66;5202168;28;20025;-83
2023/10/22 07:59:41;;;;;;;9.27;3.28;;;;;;;15.11;100.00;100490.22;5197624;28;20075;-82
2023/10/22 08:02:11;;;;;;;5.18;2.58;;;;;;;15.16;100.00;100498.53;5200883;28;20021;-83
2023/10/22 08:04:42;;;;;;;5.90;2.67;;;;;;;15.22;100.00;100497.72;5199766;28;20095;-83
2023/10/22 08:07:12;;;;;;;6.43;2.63;;;;;;;15.28;100.00;100499.59;5204454;28;20033;-82
2023/10/22 08:09:43;;;;;;;4.00;2.03;;;;;;;15.35;100.00;100502.28;5190575;28;20079;-82
2023/10/22 08:12:13;;;;;;;6.00;2.53;;;;;;;15.33;100.00;100503.53;5197641;28;20030;-82
2023/10/22 08:14:44;;;;;;;5.97;3.10;;;;;;;15.48;100.00;100510.41;5202105;28;20029;-82
2023/10/22 08:17:14;;;;;;;6.28;2.65;;;;;;;15.58;100.00;100520.00;5204939;28;20080;-81
2023/10/22 08:19:45;;;;;;;6.05;2.67;;;;;;;15.53;100.00;100523.31;5201743;28;20025;-82
2023/10/22 08:22:16;;;;;;;8.05;3.10;;;;;;;15.66;100.00;100526.06;5201297;28;20088;-82
2023/10/22 08:24:49;;;;;;;4.10;2.55;;;;;;;15.72;100.00;100521.72;5199252;28;20013;-82
2023/10/22 08:27:19;;;;;;;5.60;3.10;;;;;;;15.78;100.00;100527.09;5203582;28;20506;-82
2023/10/22 08:29:49;;;;;;;5.07;2.30;;;;;;;15.73;100.00;100524.19;5200683;28;20017;-81
2023/10/22 08:32:20;;;;;;;4.72;2.70;;;;;;;15.90;100.00;100532.72;5204351;28;20601;-81
2023/10/22 08:34:50;;;;;;;8.05;2.45;;;;;;;15.89;100.00;100530.22;5200942;28;20060;-82
2023/10/22 08:37:21;;;;;;;4.07;2.35;;;;;;;15.82;100.00;100540.22;5184305;28;20480;-81
2023/10/22 08:39:51;;;;;;;9.07;2.95;;;;;;;15.83;100.00;100547.28;5199769;28;20359;-82
2023/10/22 08:42:23;;;;;;;3.78;2.33;;;;;;;15.74;100.00;100544.78;5182024;28;20025;-84
2023/10/22 08:44:54;;;;;;;23.15;3.10;;;;;;;15.80;100.00;100552.06;5199316;28;20026;-82
2023/10/22 08:47:25;;;;;;;9.13;2.80;;;;;;;15.69;100.00;100558.09;5199999;28;20036;-84
2023/10/22 08:49:56;;;;;;;4.80;2.50;;;;;;;15.51;100.00;100560.53;5182074;28;20021;-83
2023/10/22 08:52:27;;;;;;;9.30;4.03;;;;;;;15.58;100.00;100558.69;5202273;28;20396;-83
2023/10/22 08:54:58;;;;;;;8.18;2.90;;;;;;;15.47;100.00;100565.53;5197315;28;20029;-84
2023/10/22 08:57:29;;;;;;;6.43;1.83;;;;;;;15.29;100.00;100562.56;5201101;28;20170;-83
2023/10/22 09:00:00;;;;;;;9.73;2.35;;;;;;;15.37;100.00;100570.50;5193244;28;20119;-82
2023/10/22 09:02:30;;;;;;;6.30;2.38;;;;;;;15.39;100.00;100564.88;5186105;28;20067;-84
2023/10/22 09:05:01;;;;;;;6.40;2.05;;;;;;;15.50;100.00;100577.78;5199156;28;20029;-82
2023/10/22 09:07:52;;;;;;;5.07;2.30;;;;;;;15.62;100.00;100578.88;5203576;28;20105;-85
2023/10/22 09:10:24;;;;;;;5.38;2.15;;;;;;;15.64;100.00;100589.50;5187417;28;20033;-83
2023/10/22 09:13:10;;;;;;;50.50;27.48;;;;;;;15.71;100.00;100582.22;5197086;28;20514;-81
2023/10/22 09:15:42;;;;;;;;;;;;;;;15.73;100.00;100589.09;5196501;28;20483;-81
2023/10/22 09:18:14;;;;;;;428.08;266.55;;;;;;;15.84;100.00;100597.66;5194190;28;20380;-81
2023/10/22 09:20:45;;;;;;;12.95;7.93;;;;;;;15.84;100.00;100598.47;5197660;28;20060;-80
2023/10/22 09:23:22;;;;;;;25.83;19.95;;;;;;;15.88;100.00;100598.91;5200946;28;20444;-81
2023/10/22 09:25:56;;;;;;;8.85;4.85;;;;;;;15.81;100.00;100590.75;5198747;28;20018;-82
2023/10/22 09:28:28;;;;;;;4.22;2.10;;;;;;;15.86;100.00;100598.25;5197763;28;20029;-82
2023/10/22 09:31:01;;;;;;;5.05;2.42;;;;;;;15.77;100.00;100600.34;5198391;28;20483;-80
2023/10/22 09:33:33;;;;;;;6.22;4.07;;;;;;;15.65;100.00;100596.56;5197066;28;20060;-80
2023/10/22 09:36:06;;;;;;;10.38;3.83;;;;;;;15.72;100.00;100606.38;5195634;28;20041;-81
2023/10/22 09:38:42;;;;;;;3.67;1.75;;;;;;;15.71;100.00;100607.41;5199067;28;20033;-80
2023/10/22 09:41:22;;;;;;;7.20;2.22;;;;;;;15.75;100.00;100614.06;5192049;28;20032;-80
2023/10/22 09:43:54;;;;;;;11.07;3.80;;;;;;;15.78;100.00;100615.53;5201463;28;20075;-79
2023/10/22 09:46:29;;;;;;;6.60;2.58;;;;;;;15.69;100.00;100620.28;5202643;28;20025;-80
2023/10/22 09:49:01;;;;;;;6.85;3.20;;;;;;;15.74;100.00;100622.38;5200780;28;20052;-82
2023/10/22 09:51:34;;;;;;;8.23;2.10;;;;;;;15.70;100.00;100619.25;5194859;28;20055;-82
2023/10/22 09:54:07;;;;;;;5.82;2.22;;;;;;;15.64;100.00;100630.06;5181209;28;20026;-81
2023/10/22 09:56:43;;;;;;;4.50;2.00;;;;;;;15.71;100.00;100622.78;5186161;28;20076;-81
2023/10/22 09:59:16;;;;;;;5.95;3.33;;;;;;;15.86;100.00;100625.31;5197525;28;20341;-83
2023/10/22 10:01:48;;;;;;;4.95;3.30;;;;;;;15.93;100.00;100628.88;5193245;28;20017;-81
2023/10/22 10:04:20;;;;;;;4.53;2.60;;;;;;;16.03;100.00;100626.59;5182093;28;20036;-82
2023/10/22 10:06:53;;;;;;;5.32;1.83;;;;;;;15.98;100.00;100621.78;5198058;28;20029;-82
2023/10/22 10:09:25;;;;;;;5.53;2.28;;;;;;;16.15;100.00;100626.78;5202568;28;20033;-82
2023/10/22 10:12:00;;;;;;;3.65;1.75;;;;;;;16.02;100.00;100633.88;5199839;28;20076;-83
2023/10/22 10:14:49;;;;;;;4.75;1.75;;;;;;;16.14;100.00;100635.97;5200990;28;20040;-82
2023/10/22 10:17:20;;;;;;;3.22;1.38;;;;;;;16.10;100.00;100640.94;5209548;28;20072;-82
2023/10/22 10:19:51;;;;;;;5.97;2.30;;;;;;;16.30;100.00;100633.66;5197890;28;20048;-82
2023/10/22 10:22:39;;;;;;;4.05;1.58;;;;;;;16.59;100.00;100636.97;5201898;28;20278;-83
2023/10/22 10:25:28;;;;;;;3.50;1.55;;;;;;;16.73;100.00;100643.22;5201854;28;20075;-82
2023/10/22 10:28:04;;;;;;;6.22;2.55;;;;;;;16.82;100.00;100648.22;5189878;28;20152;-82
2023/10/22 10:30:35;;;;;;;4.80;2.08;;;;;;;16.88;100.00;100648.41;5198381;28;20048;-82
2023/10/22 10:33:07;;;;;;;3.97;2.20;;;;;;;16.81;100.00;100649.22;5202257;28;20025;-82
2023/10/22 10:35:44;;;;;;;4.03;2.20;;;;;;;16.81;100.00;100653.81;5202260;28;20026;-81
2023/10/22 10:38:15;;;;;;;4.07;2.13;;;;;;;16.96;100.00;100656.28;5204144;28;20452;-82
2023/10/22 10:40:48;;;;;;;44.35;23.35;;;;;;;16.94;100.00;100653.81;5197987;28;20040;-82
2023/10/22 10:43:19;;;;;;;5.90;2.88;;;;;;;16.86;100.00;100655.91;5197454;28;20326;-82
2023/10/22 10:46:24;;;;;;;4.40;3.95;;;;;;;16.70;100.00;100660.69;5194281;28;20061;-82
2023/10/22 10:48:55;;;;;;;9.73;7.13;;;;;;;16.58;100.00;100652.38;5205629;28;20025;-80
2023/10/22 10:51:26;;;;;;;3.47;2.03;;;;;;;16.55;100.00;100660.91;5205037;28;20033;-80
2023/10/22 10:54:00;;;;;;;9.07;5.30;;;;;;;16.22;100.00;100660.94;5205280;28;20083;-83
2023/10/22 10:56:46;;;;;;;3.15;1.70;;;;;;;16.36;100.00;100659.06;5203286;28;20025;-82
2023/10/22 10:59:32;;;;;;;5.60;1.83;;;;;;;16.42;100.00;100658.25;5203766;28;20030;-81
2023/10/22 11:02:06;;;;;;;4.45;1.60;;;;;;;16.56;100.00;100668.00;5195929;28;20122;-80
2023/10/22 11:04:39;;;;;;;8.73;4.22;;;;;;;16.73;100.00;100664.91;5204922;28;20017;-80
2023/10/22 11:07:09;;;;;;;3.85;1.40;;;;;;;16.95;100.00;100670.88;5199004;28;20476;-80
2023/10/22 11:09:40;;;;;;;3.97;2.22;;;;;;;17.28;100.00;100670.81;5202541;28;20079;-80
2023/10/22 11:12:10;;;;;;;3.05;1.30;;;;;;;17.34;100.00;100672.66;5197720;28;20034;-80
2023/10/22 11:14:41;;;;;;;4.13;1.48;;;;;;;17.45;100.00;100663.81;5192728;28;20018;-80
2023/10/22 11:17:11;;;;;;;3.10;1.30;;;;;;;17.48;100.00;100670.72;5199589;28;20361;-81
2023/10/22 11:19:42;;;;;;;3.85;1.42;;;;;;;17.15;100.00;100676.25;5200244;28;20029;-83
2023/10/22 11:22:12;;;;;;;3.72;1.45;;;;;;;17.21;100.00;100678.94;5201350;28;20550;-81
2023/10/22 11:24:44;;;;;;;7.28;2.38;;;;;;;17.39;100.00;100677.41;5185981;28;20431;-81
2023/10/22 11:27:16;;;;;;;5.28;1.45;;;;;;;17.43;100.00;100684.09;5197718;28;20084;-82
2023/10/22 11:29:48;;;;;;;3.88;1.83;;;;;;;17.51;100.00;100687.38;5181132;28;20018;-81
2023/10/22 11:32:20;;;;;;;1.92;1.63;;;;;;;17.61;100.00;100681.47;5200446;28;20029;-82
2023/10/22 11:34:52;;;;;;;3.88;1.52;;;;;;;17.57;100.00;100681.09;5202111;28;20482;-82
2023/10/22 11:37:30;;;;;;;4.72;1.60;;;;;;;17.49;100.00;100689.47;5201688;28;20033;-82
2023/10/22 11:40:00;;;;;;;16.60;9.73;;;;;;;17.31;100.00;100692.88;5199633;28;20116;-82